Awajishima — JD4140 — position and weather

sailwx.info

Track history (hours):
 
Tides and Currents Weather Stations Pressure Air Temp Water Temp Dewpoint Dewpoint Depression Visibility Wind Speed Wind Dir Waves Ship Positions

Awajishima

Last reported at 2017-Nov-15 08:49 UTC. Time now 2017-Nov-18 06:24 UTC.
Position N 34°57' E 139°24'.

Length 105 m; draft 4.9 m.

Type: Tanker. MMSI: 431009313.

Date/timePositionNaut miles runAvg speedWind from/ knotsBaromVisibWave heightAir tempDewpointWater temp
2017-Nov-15 08:49N 34°57' E 139°24'413.4
2017-Nov-15 08:30N 34°59' E 139°28'713.3
2017-Nov-15 08:00N 35°03' E 139°35'713.2
2017-Nov-15 07:30N 35°07' E 139°41'713.5
2017-Nov-15 07:00N 35°12' E 139°46'611.8
2017-Nov-15 06:30N 35°18' E 139°44'713.1
2017-Nov-15 06:00N 35°24' E 139°43'714.7
2017-Nov-15 05:30N 35°29' E 139°50'4 8.4
2017-Nov-15 05:00N 35°29' E 139°55'0 0.0
2017-Nov-15 04:30N 35°29' E 139°55'0 0.1
2017-Nov-15 04:00N 35°29' E 139°56'3 5.6
2017-Nov-15 03:30N 35°30' E 139°59'2 0.4
2017-Nov-14 22:32N 35°30' E 140°01'1 2.2
2017-Nov-14 21:57N 35°31' E 139°59'3 3.7
2017-Nov-14 21:14N 35°30' E 139°56'312.7
2017-Nov-14 21:00N 35°29' E 139°53'613.2
2017-Nov-14 20:30N 35°25' E 139°47'613.0
2017-Nov-14 20:01N 35°19' E 139°44'612.4
2017-Nov-14 19:30N 35°13' E 139°47'714.3
2017-Nov-14 19:00N 35°06' E 139°45'714.8
2017-Nov-14 18:30N 35°01' E 139°39'714.9
2017-Nov-14 18:00N 34°56' E 139°32'  
2017-Nov-10 14:02N 34°58' E 139°25'212.7
2017-Nov-10 13:54N 34°59' E 139°27'512.4
2017-Nov-10 13:30N 35°01' E 139°32'612.7
2017-Nov-10 13:00N 35°05' E 139°39'612.6
2017-Nov-10 12:30N 35°09' E 139°44'712.8
2017-Nov-10 12:00N 35°15' E 139°46'612.3
2017-Nov-10 11:30N 35°20' E 139°42'5 9.7
2017-Nov-10 11:00N 35°24' E 139°40'0 0.2
2017-Nov-10 10:25N 35°24' E 139°40'0 0.0
2017-Nov-10 09:58N 35°24' E 139°40'0 0.0
2017-Nov-10 09:28N 35°24' E 139°40'0 0.0
2017-Nov-10 08:58N 35°24' E 139°40'0 0.0
2017-Nov-10 08:25N 35°24' E 139°40'0 0.0
2017-Nov-10 07:58N 35°24' E 139°40'0 0.0
2017-Nov-10 07:28N 35°24' E 139°40'0 0.0
2017-Nov-10 06:58N 35°24' E 139°40'0 0.0
2017-Nov-10 06:28N 35°24' E 139°40'0 0.0
2017-Nov-10 05:58N 35°24' E 139°40'0 0.0
2017-Nov-10 05:28N 35°24' E 139°40'0 0.1
2017-Nov-10 05:00N 35°24' E 139°40'0 0.8
2017-Nov-10 04:30N 35°24' E 139°40'2 3.5
2017-Nov-10 03:58N 35°22' E 139°41'0 0.1
2017-Nov-10 03:28N 35°22' E 139°41'0 0.0
2017-Nov-10 02:58N 35°22' E 139°41'0 0.0
2017-Nov-10 02:28N 35°22' E 139°41'0 0.0
2017-Nov-10 01:58N 35°22' E 139°41'0 0.0
2017-Nov-10 01:25N 35°22' E 139°41'0 0.0
2017-Nov-10 00:58N 35°22' E 139°41'0 0.1
2017-Nov-10 00:28N 35°22' E 139°41'0 0.0
2017-Nov-09 23:58N 35°22' E 139°41'0 0.0
2017-Nov-09 23:28N 35°22' E 139°41'0 0.0
2017-Nov-09 22:58N 35°22' E 139°41'0 0.0
2017-Nov-09 22:28N 35°22' E 139°41'0 0.0
2017-Nov-09 21:58N 35°22' E 139°41'0 0.1
2017-Nov-09 21:28N 35°22' E 139°41'0 0.0
2017-Nov-09 20:58N 35°22' E 139°41'0 0.1
2017-Nov-09 20:28N 35°22' E 139°41'0 0.1
2017-Nov-09 19:58N 35°22' E 139°41'0 0.0
2017-Nov-09 19:28N 35°22' E 139°41'0 0.0
2017-Nov-09 18:58N 35°22' E 139°41'0 0.0
2017-Nov-09 18:28N 35°22' E 139°41'0 0.0
2017-Nov-09 17:58N 35°22' E 139°41'0 0.0
2017-Nov-09 17:28N 35°22' E 139°41'2 4.6
2017-Nov-09 17:01N 35°21' E 139°42'613.0
2017-Nov-09 16:31N 35°15' E 139°47'612.6
2017-Nov-09 16:00N 35°09' E 139°46'  
Track history (hours):
 
Tides and Currents Weather Stations Pressure Air Temp Water Temp Dewpoint Dewpoint Depression Visibility Wind Speed Wind Dir Waves Ship Positions

Awajishima

Last reported at 2017-Nov-15 08:49 UTC. Time now 2017-Nov-18 06:24 UTC.
Position N 34°57' E 139°24'.

Length 105 m; draft 4.9 m.

Type: Tanker. MMSI: 431009313.

Date/timePositionNaut miles runAvg speedWind from/ knotsBaromVisibWave heightAir tempDewpointWater temp
2017-Nov-15 08:49N 34°57' E 139°24'413.4
2017-Nov-15 08:30N 34°59' E 139°28'713.3
2017-Nov-15 08:00N 35°03' E 139°35'713.2
2017-Nov-15 07:30N 35°07' E 139°41'713.5
2017-Nov-15 07:00N 35°12' E 139°46'611.8
2017-Nov-15 06:30N 35°18' E 139°44'713.1
2017-Nov-15 06:00N 35°24' E 139°43'714.7
2017-Nov-15 05:30N 35°29' E 139°50'4 8.4
2017-Nov-15 05:00N 35°29' E 139°55'0 0.0
2017-Nov-15 04:30N 35°29' E 139°55'0 0.1
2017-Nov-15 04:00N 35°29' E 139°56'3 5.6
2017-Nov-15 03:30N 35°30' E 139°59'2 0.4
2017-Nov-14 22:32N 35°30' E 140°01'1 2.2
2017-Nov-14 21:57N 35°31' E 139°59'3 3.7
2017-Nov-14 21:14N 35°30' E 139°56'312.7
2017-Nov-14 21:00N 35°29' E 139°53'613.2
2017-Nov-14 20:30N 35°25' E 139°47'613.0
2017-Nov-14 20:01N 35°19' E 139°44'612.4
2017-Nov-14 19:30N 35°13' E 139°47'714.3
2017-Nov-14 19:00N 35°06' E 139°45'714.8
2017-Nov-14 18:30N 35°01' E 139°39'714.9
2017-Nov-14 18:00N 34°56' E 139°32'  
2017-Nov-10 14:02N 34°58' E 139°25'212.7
2017-Nov-10 13:54N 34°59' E 139°27'512.4
2017-Nov-10 13:30N 35°01' E 139°32'612.7
2017-Nov-10 13:00N 35°05' E 139°39'612.6
2017-Nov-10 12:30N 35°09' E 139°44'712.8
2017-Nov-10 12:00N 35°15' E 139°46'612.3
2017-Nov-10 11:30N 35°20' E 139°42'5 9.7
2017-Nov-10 11:00N 35°24' E 139°40'0 0.2
2017-Nov-10 10:25N 35°24' E 139°40'0 0.0
2017-Nov-10 09:58N 35°24' E 139°40'0 0.0
2017-Nov-10 09:28N 35°24' E 139°40'0 0.0
2017-Nov-10 08:58N 35°24' E 139°40'0 0.0
2017-Nov-10 08:25N 35°24' E 139°40'0 0.0
2017-Nov-10 07:58N 35°24' E 139°40'0 0.0
2017-Nov-10 07:28N 35°24' E 139°40'0 0.0
2017-Nov-10 06:58N 35°24' E 139°40'0 0.0
2017-Nov-10 06:28N 35°24' E 139°40'0 0.0
2017-Nov-10 05:58N 35°24' E 139°40'0 0.0
2017-Nov-10 05:28N 35°24' E 139°40'0 0.1
2017-Nov-10 05:00N 35°24' E 139°40'0 0.8
2017-Nov-10 04:30N 35°24' E 139°40'2 3.5
2017-Nov-10 03:58N 35°22' E 139°41'0 0.1
2017-Nov-10 03:28N 35°22' E 139°41'0 0.0
2017-Nov-10 02:58N 35°22' E 139°41'0 0.0
2017-Nov-10 02:28N 35°22' E 139°41'0 0.0
2017-Nov-10 01:58N 35°22' E 139°41'0 0.0
2017-Nov-10 01:25N 35°22' E 139°41'0 0.0
2017-Nov-10 00:58N 35°22' E 139°41'0 0.1
2017-Nov-10 00:28N 35°22' E 139°41'0 0.0
2017-Nov-09 23:58N 35°22' E 139°41'0 0.0
2017-Nov-09 23:28N 35°22' E 139°41'0 0.0
2017-Nov-09 22:58N 35°22' E 139°41'0 0.0
2017-Nov-09 22:28N 35°22' E 139°41'0 0.0
2017-Nov-09 21:58N 35°22' E 139°41'0 0.1
2017-Nov-09 21:28N 35°22' E 139°41'0 0.0
2017-Nov-09 20:58N 35°22' E 139°41'0 0.1
2017-Nov-09 20:28N 35°22' E 139°41'0 0.1
2017-Nov-09 19:58N 35°22' E 139°41'0 0.0
2017-Nov-09 19:28N 35°22' E 139°41'0 0.0
2017-Nov-09 18:58N 35°22' E 139°41'0 0.0
2017-Nov-09 18:28N 35°22' E 139°41'0 0.0
2017-Nov-09 17:58N 35°22' E 139°41'0 0.0
2017-Nov-09 17:28N 35°22' E 139°41'2 4.6
2017-Nov-09 17:01N 35°21' E 139°42'613.0
2017-Nov-09 16:31N 35°15' E 139°47'612.6
2017-Nov-09 16:00N 35°09' E 139°46'  

Dump ship's entire track history